Time;durP1;ratioP1;P1;durP2;ratioP2;P2;SDS_P1;SDS_P2;PMS_P1;PMS_P2;Temp;Humidity;BMP_temperature;BMP_pressure;BME280_temperature;BME280_humidity;BME280_pressure;Samples;Min_cycle;Max_cycle;Signal;HPM_P1;HPM_P2
2024/01/05 00:00:37;;;;;;;4.53;1.55;;;;;;;2.70;100.00;91970.06;2096939;28;20044;-79
2024/01/05 00:01:38;;;;;;;5.38;1.45;;;;;;;2.82;100.00;91969.56;2105343;28;20477;-80
2024/01/05 00:02:39;;;;;;;9.15;1.95;;;;;;;2.75;100.00;91969.63;2114515;28;20123;-80
2024/01/05 00:03:40;;;;;;;3.15;1.60;;;;;;;2.48;100.00;91975.56;2105695;28;20023;-82
2024/01/05 00:04:41;;;;;;;5.03;1.55;;;;;;;2.46;100.00;91972.56;2097132;28;20110;-80
2024/01/05 00:05:42;;;;;;;4.78;1.92;;;;;;;2.67;100.00;91973.47;2088424;28;20136;-78
2024/01/05 00:06:43;;;;;;;4.68;1.70;;;;;;;2.74;100.00;91971.53;2081267;28;20017;-78
2024/01/05 00:07:44;;;;;;;5.22;1.98;;;;;;;2.74;100.00;91965.50;2091752;28;20139;-82
2024/01/05 00:08:45;;;;;;;7.03;1.88;;;;;;;2.69;100.00;91960.66;2087425;28;20024;-81
2024/01/05 00:09:46;;;;;;;2.88;1.38;;;;;;;2.73;100.00;91964.00;2088253;28;20033;-80
2024/01/05 00:10:48;;;;;;;4.72;1.50;;;;;;;2.84;100.00;91963.88;2081592;28;20064;-81
2024/01/05 00:11:51;;;;;;;5.18;1.55;;;;;;;2.83;100.00;91951.84;2096100;28;20032;-81
2024/01/05 00:12:52;;;;;;;4.50;1.40;;;;;;;2.85;100.00;91949.53;2085328;28;20024;-79
2024/01/05 00:13:53;;;;;;;4.55;1.27;;;;;;;2.91;100.00;91953.25;2080814;28;20030;-80
2024/01/05 00:14:54;;;;;;;6.00;1.58;;;;;;;2.85;100.00;91950.28;2087680;28;20029;-82
2024/01/05 00:15:55;;;;;;;3.22;1.48;;;;;;;2.69;100.00;91953.50;2082570;28;20041;-79
2024/01/05 00:16:58;;;;;;;8.55;1.95;;;;;;;2.66;100.00;91948.25;2082764;28;20724;-80
2024/01/05 00:17:59;;;;;;;10.00;2.08;;;;;;;2.77;100.00;91954.91;2099443;28;20099;-78
2024/01/05 00:19:00;;;;;;;6.85;1.65;;;;;;;2.95;100.00;91959.22;2110192;28;20409;-80
2024/01/05 00:20:02;;;;;;;8.13;1.60;;;;;;;2.93;100.00;91950.94;2094652;28;20054;-80
2024/01/05 00:21:03;;;;;;;4.50;1.50;;;;;;;3.03;100.00;91947.44;2077270;28;20025;-79
2024/01/05 00:22:04;;;;;;;9.48;2.38;;;;;;;2.82;100.00;91939.78;2077924;28;20028;-81
2024/01/05 00:23:05;;;;;;;5.80;1.70;;;;;;;3.01;100.00;91939.91;2096568;28;20035;-78
2024/01/05 00:24:07;;;;;;;4.28;1.50;;;;;;;2.96;100.00;91947.53;2112255;28;20027;-79
2024/01/05 00:25:08;;;;;;;11.02;2.00;;;;;;;2.95;100.00;91943.41;2097143;28;20446;-81
2024/01/05 00:26:09;;;;;;;5.80;1.90;;;;;;;3.04;100.00;91943.66;2104426;28;20106;-80
2024/01/05 00:27:10;;;;;;;3.38;1.52;;;;;;;3.03;100.00;91950.09;2104219;28;20012;-81
2024/01/05 00:28:11;;;;;;;5.20;2.25;;;;;;;3.07;100.00;91950.75;2096842;28;20082;-80
2024/01/05 00:29:12;;;;;;;7.43;1.50;;;;;;;3.07;100.00;91958.69;2096856;28;20071;-80
2024/01/05 00:30:13;;;;;;;14.57;1.40;;;;;;;3.15;100.00;91952.16;2105347;28;20046;-78
2024/01/05 00:31:15;;;;;;;7.97;1.48;;;;;;;3.30;100.00;91949.38;2096590;28;20070;-82
2024/01/05 00:32:16;;;;;;;4.13;1.30;;;;;;;3.32;100.00;91953.09;2088691;28;20021;-79
2024/01/05 00:33:17;;;;;;;6.28;1.00;;;;;;;3.26;100.00;91957.34;2089248;28;20531;-80
2024/01/05 00:34:18;;;;;;;7.47;1.98;;;;;;;3.23;100.00;91952.84;2088832;28;20573;-80
2024/01/05 00:35:19;;;;;;;4.28;1.40;;;;;;;3.34;100.00;91956.09;2088801;28;20033;-80
2024/01/05 00:36:22;;;;;;;6.75;1.40;;;;;;;3.07;100.00;91963.22;2081284;28;20037;-81
2024/01/05 00:37:23;;;;;;;5.97;1.55;;;;;;;3.23;100.00;91963.41;2075970;28;20583;-78
2024/01/05 00:38:24;;;;;;;7.32;1.63;;;;;;;3.27;100.00;91966.75;2080573;28;20076;-78
2024/01/05 00:39:25;;;;;;;4.95;1.65;;;;;;;3.40;100.00;91959.03;2082677;28;20271;-81
2024/01/05 00:40:26;;;;;;;5.63;1.27;;;;;;;3.40;100.00;91965.06;2073741;28;20041;-79
2024/01/05 00:41:26;;;;;;;4.63;1.27;;;;;;;3.61;100.00;91960.63;2072911;28;20116;-81
2024/01/05 00:42:29;;;;;;;6.43;1.75;;;;;;;3.58;100.00;91966.69;2079999;28;20414;-80
2024/01/05 00:43:31;;;;;;;10.13;1.23;;;;;;;3.64;100.00;91954.53;2096049;28;20024;-79
2024/01/05 00:44:32;;;;;;;8.20;1.40;;;;;;;3.60;100.00;91956.47;2095378;28;20350;-82
2024/01/05 00:45:33;;;;;;;5.13;1.30;;;;;;;3.65;100.00;91962.06;2095834;28;20035;-80
2024/01/05 00:46:37;;;;;;;4.38;1.40;;;;;;;3.67;100.00;91954.47;2088562;28;20040;-83
2024/01/05 00:47:38;;;;;;;5.80;1.05;;;;;;;3.56;100.00;91950.50;2087508;28;20064;-80
2024/01/05 00:48:39;;;;;;;3.30;1.42;;;;;;;3.37;100.00;91957.16;2081695;28;20029;-82
2024/01/05 00:49:40;;;;;;;6.03;1.63;;;;;;;3.44;100.00;91951.81;2091518;28;20098;-80
2024/01/05 00:50:41;;;;;;;9.50;1.80;;;;;;;3.34;100.00;91948.16;2084877;28;20033;-82
2024/01/05 00:51:42;;;;;;;3.47;1.23;;;;;;;3.32;100.00;91949.69;2080863;28;20487;-82
2024/01/05 00:52:43;;;;;;;6.70;1.65;;;;;;;3.28;100.00;91952.38;2076850;28;20033;-79
2024/01/05 00:53:44;;;;;;;5.03;1.50;;;;;;;3.19;100.00;91952.13;2080053;28;20552;-80
2024/01/05 00:54:45;;;;;;;8.25;1.85;;;;;;;3.19;100.00;91944.94;2088093;28;20409;-80
2024/01/05 00:55:46;;;;;;;6.07;1.70;;;;;;;3.28;100.00;91941.81;2087854;28;20203;-81
2024/01/05 00:56:47;;;;;;;7.68;1.33;;;;;;;3.43;100.00;91942.41;2084303;28;20029;-80
2024/01/05 00:57:48;;;;;;;8.63;1.75;;;;;;;3.54;100.00;91940.31;2080253;28;20115;-80
2024/01/05 00:58:49;;;;;;;7.68;1.50;;;;;;;3.37;100.00;91942.06;2080165;28;20655;-79
2024/01/05 00:59:55;;;;;;;3.05;1.10;;;;;;;3.39;100.00;91939.78;2073507;28;20072;-80
2024/01/05 01:01:07;;;;;;;5.22;1.40;;;;;;;3.47;100.00;91940.44;2089126;28;20036;-81
2024/01/05 01:02:08;;;;;;;6.00;1.77;;;;;;;3.57;100.00;91942.19;2090079;28;20486;-79
2024/01/05 01:03:09;;;;;;;7.00;1.63;;;;;;;3.47;100.00;91935.16;2080822;28;20029;-81
2024/01/05 01:04:10;;;;;;;5.25;1.35;;;;;;;3.43;100.00;91935.22;2072317;28;20433;-81
2024/01/05 01:07:07;;;;;;;5.18;1.38;;;;;;;3.27;100.00;91935.06;2088257;28;20439;-80
2024/01/05 01:08:08;;;;;;;4.00;1.50;;;;;;;3.19;100.00;91936.28;2089013;28;20071;-83
2024/01/05 01:11:15;;;;;;;3.17;1.55;;;;;;;3.34;100.00;91937.59;2100992;28;20028;-79
2024/01/05 01:12:16;;;;;;;8.50;1.77;;;;;;;3.32;100.00;91942.53;2101784;28;20020;-80
2024/01/05 01:13:17;;;;;;;9.18;1.80;;;;;;;3.47;100.00;91941.19;2102183;28;20020;-80
2024/01/05 01:14:18;;;;;;;4.38;1.55;;;;;;;3.31;100.00;91941.03;2095551;28;20052;-81
2024/01/05 01:15:20;;;;;;;6.05;1.73;;;;;;;3.44;100.00;91935.97;2080048;28;20116;-79
2024/01/05 01:16:21;;;;;;;10.45;2.03;;;;;;;3.51;100.00;91936.59;2082108;28;20020;-78
2024/01/05 01:17:23;;;;;;;6.28;1.75;;;;;;;3.30;100.00;91936.16;2083333;28;20449;-80
2024/01/05 01:20:21;;;;;;;3.83;1.40;;;;;;;3.30;100.00;91936.91;2096544;28;20346;-80
2024/01/05 01:21:22;;;;;;;5.07;1.42;;;;;;;3.46;100.00;91936.28;2083573;28;20037;-79
2024/01/05 01:22:23;;;;;;;6.63;1.85;;;;;;;3.38;100.00;91930.38;2071982;28;20037;-80
2024/01/05 01:23:24;;;;;;;4.05;1.15;;;;;;;3.32;100.00;91931.97;2088589;28;20080;-79
2024/01/05 01:24:25;;;;;;;6.38;1.55;;;;;;;3.45;100.00;91927.63;2091783;28;20024;-81
2024/01/05 01:25:26;;;;;;;5.57;1.63;;;;;;;3.51;100.00;91931.31;2088252;28;20029;-81
2024/01/05 01:26:27;;;;;;;5.35;1.58;;;;;;;3.41;100.00;91929.56;2096861;28;20027;-79
2024/01/05 01:27:29;;;;;;;3.03;1.65;;;;;;;3.49;100.00;91923.03;2080568;28;20060;-81
2024/01/05 01:28:31;;;;;;;2.75;1.33;;;;;;;3.54;100.00;91935.03;2076722;28;20025;-80
2024/01/05 01:29:32;;;;;;;6.78;1.92;;;;;;;3.44;100.00;91925.38;2079299;28;20053;-79
2024/01/05 01:30:33;;;;;;;3.65;1.60;;;;;;;3.32;100.00;91929.31;2096704;28;20028;-80
2024/01/05 01:31:33;;;;;;;6.68;1.40;;;;;;;3.25;100.00;91924.91;2101730;28;20055;-80
2024/01/05 01:32:36;;;;;;;8.25;1.90;;;;;;;3.27;100.00;91917.31;2096024;28;20472;-79
2024/01/05 01:33:38;;;;;;;7.03;1.70;;;;;;;3.34;100.00;91927.03;2088758;28;20031;-81
2024/01/05 01:34:57;;;;;;;5.05;1.50;;;;;;;3.46;100.00;91923.81;2096528;28;20024;-80
2024/01/05 01:35:58;;;;;;;5.97;1.50;;;;;;;3.54;100.00;91921.84;2077924;28;20054;-80
2024/01/05 01:36:59;;;;;;;5.47;1.45;;;;;;;3.53;100.00;91920.34;2100809;28;20073;-79
2024/01/05 01:38:00;;;;;;;9.90;1.98;;;;;;;3.43;100.00;91916.72;2088473;28;20021;-80
2024/01/05 01:39:41;;;;;;;5.70;2.00;;;;;;;3.45;100.00;91913.66;2082733;28;20398;-81
2024/01/05 01:40:46;;;;;;;4.07;1.75;;;;;;;3.39;100.00;91916.03;2101767;28;20534;-84
2024/01/05 01:41:47;;;;;;;7.22;1.83;;;;;;;3.52;100.00;91919.59;2104654;28;20493;-79
2024/01/05 01:42:49;;;;;;;3.95;1.75;;;;;;;3.25;100.00;91918.88;2090470;28;20036;-81
2024/01/05 01:43:50;;;;;;;7.25;1.75;;;;;;;3.25;100.00;91916.97;2079409;28;20025;-80
2024/01/05 01:44:51;;;;;;;7.70;1.92;;;;;;;3.48;100.00;91907.59;2075701;28;20022;-81
2024/01/05 01:45:55;;;;;;;9.25;1.73;;;;;;;3.45;100.00;91901.22;2085823;28;20422;-82
2024/01/05 01:46:57;;;;;;;7.05;1.92;;;;;;;3.32;100.00;91908.19;2108572;28;20031;-82
2024/01/05 01:47:58;;;;;;;4.55;1.60;;;;;;;3.43;100.00;91906.16;2099922;28;20370;-81
2024/01/05 01:50:58;;;;;;;5.03;1.50;;;;;;;3.31;100.00;91911.25;2101852;28;20063;-80
2024/01/05 01:51:59;;;;;;;4.82;1.50;;;;;;;3.39;100.00;91905.47;2111114;27;20119;-81
2024/01/05 01:53:00;;;;;;;5.50;1.55;;;;;;;3.41;100.00;91910.34;2111517;28;20496;-81
2024/01/05 01:54:04;;;;;;;7.68;1.58;;;;;;;3.34;100.00;91907.81;2100981;28;20102;-80
2024/01/05 01:55:07;;;;;;;5.93;1.95;;;;;;;3.42;100.00;91902.00;2097316;28;20545;-81
2024/01/05 01:56:11;;;;;;;8.20;1.90;;;;;;;3.31;100.00;91911.25;2095402;28;20095;-81
2024/01/05 01:57:15;;;;;;;11.65;2.00;;;;;;;3.17;100.00;91899.72;2096436;28;20056;-81
2024/01/05 01:58:16;;;;;;;7.15;2.38;;;;;;;3.02;100.00;91896.53;2096557;28;20028;-79
2024/01/05 01:59:17;;;;;;;7.40;1.98;;;;;;;3.16;100.00;91906.16;2096246;28;20031;-79
2024/01/05 02:00:19;;;;;;;6.95;1.90;;;;;;;3.16;100.00;91897.47;2095389;28;20025;-81
2024/01/05 02:01:21;;;;;;;5.55;2.22;;;;;;;3.18;100.00;91895.19;2104086;28;20146;-84
2024/01/05 02:02:22;;;;;;;9.52;2.15;;;;;;;3.09;100.00;91894.94;2095991;28;20379;-79
2024/01/05 02:03:23;;;;;;;9.98;2.38;;;;;;;3.16;100.00;91897.47;2096252;28;20025;-80
2024/01/05 02:04:26;;;;;;;11.48;2.53;;;;;;;3.13;100.00;91895.66;2104346;28;20020;-81
2024/01/05 02:08:15;;;;;;;8.90;2.30;;;;;;;3.11;100.00;91890.75;2097591;28;20031;-80
2024/01/05 02:09:16;;;;;;;7.95;2.38;;;;;;;3.03;100.00;91903.31;2094939;28;20039;-78
2024/01/05 02:10:18;;;;;;;5.78;2.03;;;;;;;3.05;100.00;91902.16;2096364;28;20052;-80
2024/01/05 02:11:19;;;;;;;6.78;2.00;;;;;;;3.16;100.00;91900.13;2101060;28;20059;-80
2024/01/05 02:12:58;;;;;;;5.55;2.50;;;;;;;3.03;100.00;91898.03;2086839;28;20029;-81
2024/01/05 02:14:00;;;;;;;6.15;2.25;;;;;;;3.16;100.00;91894.84;2105936;28;20070;-79
2024/01/05 02:15:02;;;;;;;5.03;2.08;;;;;;;3.16;100.00;91892.97;2111733;28;20036;-81
2024/01/05 02:16:04;;;;;;;5.10;2.35;;;;;;;3.21;100.00;91883.84;2105731;28;20035;-80
2024/01/05 02:17:34;;;;;;;4.63;2.05;;;;;;;3.32;100.00;91889.72;2091833;28;20550;-80
2024/01/05 02:18:36;;;;;;;5.93;1.77;;;;;;;3.37;100.00;91868.13;2106019;28;20023;-79
2024/01/05 02:19:37;;;;;;;5.68;1.88;;;;;;;3.17;100.00;91875.22;2095874;28;20757;-80
2024/01/05 02:20:38;;;;;;;6.22;2.40;;;;;;;3.11;100.00;91874.91;2090954;28;20043;-80
2024/01/05 02:21:45;;;;;;;5.55;2.00;;;;;;;3.24;100.00;91861.91;2097702;28;20425;-82
2024/01/05 02:22:58;;;;;;;4.05;1.67;;;;;;;3.05;100.00;91860.69;2103357;28;20040;-79
2024/01/05 02:27:50;;;;;;;3.17;1.55;;;;;;;2.61;100.00;91867.66;2132502;27;20302;-82
2024/01/05 02:28:51;;;;;;;3.90;1.70;;;;;;;2.67;100.00;91860.78;2120326;28;20109;-80
2024/01/05 02:33:39;;;;;;;5.85;1.58;;;;;;;2.92;100.00;91870.28;2129021;27;20031;-83
2024/01/05 02:36:36;;;;;;;5.88;1.63;;;;;;;2.63;100.00;91867.25;2118717;28;20031;-81
2024/01/05 02:37:42;;;;;;;6.80;1.90;;;;;;;2.76;100.00;91868.22;2113964;28;20028;-80
2024/01/05 02:38:42;;;;;;;5.65;2.22;;;;;;;2.67;100.00;91866.06;2112164;28;20487;-81
2024/01/05 02:41:41;;;;;;;4.28;1.77;;;;;;;2.68;100.00;91866.84;2126386;27;20019;-80
2024/01/05 02:46:37;;;;;;;4.20;1.30;;;;;;;2.60;100.00;91863.53;2127464;27;20054;-79
2024/01/05 02:47:38;;;;;;;3.63;1.63;;;;;;;2.70;100.00;91857.38;2128418;27;20031;-81
2024/01/05 02:48:39;;;;;;;6.93;1.60;;;;;;;2.72;100.00;91859.59;2120359;27;20150;-81
2024/01/05 02:49:40;;;;;;;4.70;1.30;;;;;;;2.64;100.00;91861.59;2137537;27;20379;-81
2024/01/05 02:50:41;;;;;;;7.97;1.65;;;;;;;2.47;100.00;91855.41;2128462;27;20030;-82
2024/01/05 02:53:48;;;;;;;5.10;1.38;;;;;;;2.42;100.00;91861.09;2124141;27;20826;-82
2024/01/05 02:54:49;;;;;;;3.85;1.58;;;;;;;2.34;100.00;91859.69;2120955;27;20108;-79
2024/01/05 02:55:51;;;;;;;4.63;1.77;;;;;;;2.41;100.00;91854.31;2119269;27;20546;-83
2024/01/05 02:56:54;;;;;;;7.93;1.90;;;;;;;2.49;100.00;91860.25;2112018;28;20027;-80
2024/01/05 03:02:17;;;;;;;6.38;1.58;;;;;;;2.49;100.00;91857.63;2123589;27;20038;-79
2024/01/05 03:03:18;;;;;;;5.30;1.70;;;;;;;2.34;100.00;91857.06;2119434;27;20019;-78
2024/01/05 03:04:19;;;;;;;5.30;1.67;;;;;;;2.42;100.00;91863.00;2127076;27;20023;-81
2024/01/05 03:05:20;;;;;;;4.55;1.45;;;;;;;2.46;100.00;91861.06;2110393;28;20121;-79
2024/01/05 03:06:21;;;;;;;3.78;1.48;;;;;;;2.40;100.00;91863.38;2111954;27;20035;-79
2024/01/05 03:07:22;;;;;;;7.03;1.92;;;;;;;2.43;100.00;91859.22;2125502;27;20023;-80
2024/01/05 03:08:23;;;;;;;4.88;2.00;;;;;;;2.43;100.00;91873.16;2127572;27;20026;-81
2024/01/05 03:09:24;;;;;;;11.35;2.45;;;;;;;2.50;100.00;91870.44;2111583;28;20027;-80
2024/01/05 03:26:07;;;;;;;4.78;1.45;;;;;;;2.21;100.00;91846.28;2115937;28;20051;-80
2024/01/05 03:31:05;;;;;;;4.32;1.90;;;;;;;2.24;100.00;91844.75;2115387;28;20106;-81
2024/01/05 03:32:07;;;;;;;5.43;1.85;;;;;;;2.14;100.00;91835.81;2114154;28;20038;-80
2024/01/05 03:33:09;;;;;;;3.40;1.77;;;;;;;2.26;100.00;91845.09;2114446;28;20026;-80
2024/01/05 03:34:11;;;;;;;5.10;2.55;;;;;;;2.34;100.00;91840.50;2114142;28;20023;-80
2024/01/05 03:35:12;;;;;;;4.90;2.20;;;;;;;2.28;100.00;91845.44;2110864;28;20027;-80
2024/01/05 03:36:13;;;;;;;6.30;2.22;;;;;;;2.36;100.00;91840.84;2104985;28;20019;-80
2024/01/05 03:41:08;;;;;;;4.75;1.95;;;;;;;2.22;100.00;91831.94;2116857;27;20091;-79
2024/01/05 03:46:03;;;;;;;4.20;2.00;;;;;;;2.10;100.00;91821.16;2113813;28;20023;-80
2024/01/05 03:47:04;;;;;;;5.40;2.38;;;;;;;2.04;100.00;91820.88;2114137;28;20266;-78
2024/01/05 03:48:35;;;;;;;7.05;2.50;;;;;;;2.05;100.00;91816.34;2113433;28;20028;-79
2024/01/05 03:49:36;;;;;;;6.30;2.20;;;;;;;2.00;100.00;91815.63;2100386;28;20511;-80
2024/01/05 03:50:37;;;;;;;6.18;2.05;;;;;;;2.15;100.00;91816.22;2105517;28;20032;-80
2024/01/05 03:51:38;;;;;;;5.28;2.20;;;;;;;2.09;100.00;91809.13;2104773;28;20059;-79
2024/01/05 03:52:39;;;;;;;5.85;2.50;;;;;;;2.17;100.00;91811.28;2097095;28;20047;-79
2024/01/05 03:53:40;;;;;;;3.92;1.90;;;;;;;2.09;100.00;91815.16;2105085;28;20553;-81
2024/01/05 03:54:42;;;;;;;4.50;1.80;;;;;;;2.06;100.00;91815.19;2094916;28;20115;-82
2024/01/05 03:55:43;;;;;;;3.75;2.20;;;;;;;2.05;100.00;91817.09;2096059;28;20139;-80
2024/01/05 03:56:48;;;;;;;7.38;2.47;;;;;;;2.16;100.00;91809.06;2105449;28;20041;-80
2024/01/05 03:57:49;;;;;;;2.97;1.45;;;;;;;2.07;100.00;91809.53;2101646;28;20028;-80
2024/01/05 03:59:43;;;;;;;2.42;1.48;;;;;;;2.18;100.00;91812.03;2105233;28;20024;-79
2024/01/05 04:00:43;;;;;;;4.20;1.58;;;;;;;2.16;100.00;91812.44;2112510;28;20034;-81
2024/01/05 04:01:46;;;;;;;2.28;1.52;;;;;;;2.12;100.00;91814.38;2105403;28;20877;-80
2024/01/05 04:02:47;;;;;;;6.43;1.80;;;;;;;2.00;100.00;91809.59;2113498;28;20066;-83
2024/01/05 04:03:48;;;;;;;5.80;1.65;;;;;;;2.20;100.00;91815.78;2084140;28;20060;-80
2024/01/05 04:04:49;;;;;;;10.13;1.40;;;;;;;2.20;100.00;91807.88;2092581;28;20051;-81
2024/01/05 04:05:50;;;;;;;5.82;1.85;;;;;;;2.27;100.00;91801.75;2089476;28;20025;-81
2024/01/05 04:06:51;;;;;;;3.83;1.40;;;;;;;2.31;100.00;91799.84;2095828;28;20370;-80
2024/01/05 04:07:52;;;;;;;4.72;1.77;;;;;;;2.37;100.00;91808.03;2102507;28;20028;-80
2024/01/05 04:08:52;;;;;;;3.72;2.17;;;;;;;2.38;100.00;91799.75;2096906;28;20899;-80
2024/01/05 04:09:53;;;;;;;3.65;1.70;;;;;;;2.40;100.00;91799.34;2105294;28;20798;-80
2024/01/05 04:10:54;;;;;;;4.18;1.58;;;;;;;2.41;100.00;91790.28;2113308;28;20031;-79
2024/01/05 04:12:04;;;;;;;3.72;1.67;;;;;;;2.33;100.00;91788.88;2113391;28;20028;-79
2024/01/05 04:14:00;;;;;;;6.50;2.10;;;;;;;2.31;100.00;91786.66;2106647;28;20036;-79
2024/01/05 04:15:01;;;;;;;2.45;1.50;;;;;;;2.34;100.00;91793.03;2099325;28;20071;-78
2024/01/05 04:16:02;;;;;;;4.60;1.75;;;;;;;2.41;100.00;91785.75;2094639;28;20135;-80
2024/01/05 04:17:04;;;;;;;3.83;1.90;;;;;;;2.29;100.00;91794.22;2104946;28;20266;-81
2024/01/05 04:18:06;;;;;;;3.30;1.50;;;;;;;2.21;100.00;91790.91;2096778;28;20107;-80
2024/01/05 04:19:08;;;;;;;5.30;1.60;;;;;;;2.35;100.00;91786.63;2096625;28;20489;-79
2024/01/05 04:20:09;;;;;;;8.52;1.98;;;;;;;2.34;100.00;91785.88;2096738;28;20064;-80
2024/01/05 04:21:11;;;;;;;3.35;1.85;;;;;;;2.20;100.00;91784.16;2096865;28;20107;-79
2024/01/05 04:22:12;;;;;;;5.18;1.88;;;;;;;2.20;100.00;91783.41;2113086;28;20422;-79
2024/01/05 04:23:13;;;;;;;6.78;2.28;;;;;;;2.11;100.00;91770.72;2104954;28;20073;-79
2024/01/05 04:24:14;;;;;;;4.65;1.90;;;;;;;2.23;100.00;91764.16;2096801;28;20025;-79
2024/01/05 04:25:15;;;;;;;4.97;2.13;;;;;;;2.35;100.00;91770.78;2102686;28;20024;-79
2024/01/05 04:26:16;;;;;;;4.40;2.00;;;;;;;2.46;100.00;91772.16;2113554;28;20110;-78
2024/01/05 04:27:17;;;;;;;3.97;1.85;;;;;;;2.50;100.00;91769.44;2096784;28;20047;-80
2024/01/05 04:28:18;;;;;;;4.88;2.42;;;;;;;2.43;100.00;91772.94;2096727;28;20519;-79
2024/01/05 04:29:19;;;;;;;8.45;2.75;;;;;;;2.52;100.00;91769.81;2101163;28;20067;-80
2024/01/05 04:30:20;;;;;;;5.72;2.20;;;;;;;2.52;100.00;91767.19;2113821;28;20047;-80
2024/01/05 04:31:21;;;;;;;7.35;2.35;;;;;;;2.35;100.00;91765.53;2112472;28;20110;-81
2024/01/05 04:32:42;;;;;;;4.90;2.80;;;;;;;2.29;100.00;91770.50;2100461;28;20032;-77
2024/01/05 04:36:03;;;;;;;5.40;2.08;;;;;;;2.51;100.00;91771.72;2105834;28;20027;-79
2024/01/05 04:37:15;;;;;;;5.60;2.10;;;;;;;2.60;100.00;91767.84;2105111;28;20024;-78
2024/01/05 04:40:35;;;;;;;4.32;2.10;;;;;;;2.47;100.00;91767.63;2112119;28;20046;-80
2024/01/05 04:41:37;;;;;;;4.55;2.25;;;;;;;2.44;100.00;91771.06;2107486;28;20639;-80
2024/01/05 04:42:39;;;;;;;3.58;2.20;;;;;;;2.42;100.00;91775.97;2105685;28;20055;-82
2024/01/05 04:43:40;;;;;;;5.60;2.38;;;;;;;2.46;100.00;91776.69;2094950;28;20032;-80
2024/01/05 04:46:52;;;;;;;4.80;2.35;;;;;;;2.48;100.00;91777.03;2111173;28;20038;-81
2024/01/05 04:53:46;;;;;;;5.18;1.88;;;;;;;2.76;100.00;91763.44;2113464;28;20464;-78
2024/01/05 04:54:47;;;;;;;5.07;1.67;;;;;;;2.81;100.00;91769.41;2105278;28;20558;-81
2024/01/05 04:55:48;;;;;;;3.95;1.70;;;;;;;2.79;100.00;91767.16;2087544;28;20033;-78
2024/01/05 04:57:29;;;;;;;3.88;2.00;;;;;;;2.75;100.00;91758.56;2096545;28;20028;-79
2024/01/05 04:58:30;;;;;;;4.13;1.52;;;;;;;2.69;100.00;91757.53;2102989;28;20115;-81
2024/01/05 04:59:31;;;;;;;2.67;1.80;;;;;;;2.68;100.00;91758.69;2084332;28;20107;-78
2024/01/05 05:00:32;;;;;;;5.57;1.90;;;;;;;2.57;100.00;91755.44;2094091;28;20441;-80
2024/01/05 05:01:36;;;;;;;3.45;1.85;;;;;;;2.42;100.00;91754.88;2111805;28;20068;-79
2024/01/05 05:02:37;;;;;;;2.83;1.52;;;;;;;2.41;100.00;91750.75;2105743;28;20043;-79
2024/01/05 05:03:41;;;;;;;4.70;2.10;;;;;;;2.35;100.00;91745.16;2096322;28;20592;-80
2024/01/05 05:04:41;;;;;;;6.68;2.38;;;;;;;2.40;100.00;91752.63;2096333;28;20032;-80
2024/01/05 05:05:42;;;;;;;5.65;2.10;;;;;;;2.38;100.00;91751.56;2083331;28;20487;-79
2024/01/05 05:06:46;;;;;;;3.65;2.22;;;;;;;2.27;100.00;91747.16;2089155;28;20107;-81
2024/01/05 05:07:47;;;;;;;5.22;2.00;;;;;;;2.27;100.00;91751.69;2100815;28;20050;-81
2024/01/05 05:08:48;;;;;;;2.40;1.60;;;;;;;2.21;100.00;91750.63;2104981;28;20093;-78
2024/01/05 05:13:47;;;;;;;2.40;1.65;;;;;;;2.05;100.00;91745.94;2112635;28;20046;-78
2024/01/05 05:16:46;;;;;;;4.28;1.23;;;;;;;2.10;100.00;91752.66;2073913;28;20041;-80
2024/01/05 05:19:45;;;;;;;4.22;1.70;;;;;;;2.23;100.00;91757.00;2071151;28;20525;-80
2024/01/05 05:22:50;;;;;;;5.18;1.77;;;;;;;2.10;100.00;91748.13;2073431;28;20037;-78
2024/01/05 05:26:02;;;;;;;4.93;1.70;;;;;;;2.03;100.00;91750.84;2075752;28;20474;-78
2024/01/05 05:29:00;;;;;;;5.00;2.00;;;;;;;2.06;100.00;91749.31;2070050;28;20042;-80
2024/01/05 05:31:58;;;;;;;6.10;2.10;;;;;;;2.11;100.00;91751.50;2070545;28;20064;-79
2024/01/05 05:33:00;;;;;;;3.22;2.13;;;;;;;2.16;100.00;91751.81;2071208;28;20073;-82
2024/01/05 05:34:01;;;;;;;4.25;2.30;;;;;;;2.20;100.00;91749.16;2079127;28;20037;-80
2024/01/05 05:35:02;;;;;;;4.35;2.13;;;;;;;2.23;100.00;91749.06;2095507;28;20035;-80
2024/01/05 05:36:07;;;;;;;5.60;2.33;;;;;;;2.15;100.00;91758.25;2098628;28;20439;-81
2024/01/05 05:37:08;;;;;;;6.40;2.53;;;;;;;2.21;100.00;91755.91;2096666;28;20488;-79
2024/01/05 05:38:14;;;;;;;8.57;3.17;;;;;;;2.25;100.00;91759.25;2102240;28;20140;-81
2024/01/05 05:39:19;;;;;;;8.73;2.70;;;;;;;2.33;100.00;91758.03;2096866;28;20406;-82
2024/01/05 05:40:20;;;;;;;3.88;2.33;;;;;;;2.36;100.00;91751.19;2096760;28;20457;-81
2024/01/05 05:41:21;;;;;;;7.15;2.70;;;;;;;2.30;100.00;91756.16;2091495;28;20036;-81
2024/01/05 05:42:22;;;;;;;5.80;3.13;;;;;;;2.20;100.00;91752.53;2104658;28;20024;-80
2024/01/05 05:43:23;;;;;;;8.77;6.85;;;;;;;2.23;100.00;91753.59;2111457;28;20380;-82
2024/01/05 05:44:24;;;;;;;6.30;4.18;;;;;;;2.29;100.00;91746.78;2100757;28;20039;-81
2024/01/05 05:45:28;;;;;;;6.78;3.08;;;;;;;2.36;100.00;91751.94;2100538;28;20043;-79
2024/01/05 05:47:24;;;;;;;5.55;2.70;;;;;;;2.40;100.00;91751.88;2104295;28;20028;-81
2024/01/05 05:52:15;;;;;;;3.78;2.28;;;;;;;2.45;100.00;91752.19;2110622;28;20031;-80
2024/01/05 05:53:16;;;;;;;4.28;2.00;;;;;;;2.48;100.00;91758.56;2112713;28;20029;-80
2024/01/05 05:54:17;;;;;;;5.03;2.70;;;;;;;2.50;100.00;91751.75;2112724;28;20088;-80
2024/01/05 05:55:18;;;;;;;5.50;3.10;;;;;;;2.50;100.00;91759.66;2095162;28;20115;-80
2024/01/05 05:56:19;;;;;;;5.10;2.50;;;;;;;2.51;100.00;91755.88;2095470;28;20028;-80
2024/01/05 05:57:20;;;;;;;6.45;3.38;;;;;;;2.51;100.00;91753.25;2112430;28;20050;-79
2024/01/05 05:58:21;;;;;;;5.05;2.10;;;;;;;2.45;100.00;91759.34;2109686;28;20123;-79
2024/01/05 05:59:23;;;;;;;5.70;2.00;;;;;;;2.39;100.00;91766.97;2107744;28;20031;-81
2024/01/05 06:00:25;;;;;;;3.13;1.92;;;;;;;2.51;100.00;91768.31;2099709;28;20036;-79
2024/01/05 06:01:25;;;;;;;5.32;1.85;;;;;;;2.47;100.00;91772.91;2093843;28;20031;-80
2024/01/05 06:02:27;;;;;;;6.47;1.83;;;;;;;2.34;100.00;91777.22;2104651;28;20024;-79
2024/01/05 06:03:28;;;;;;;5.05;1.98;;;;;;;2.43;100.00;91772.19;2106985;28;20057;-80
2024/01/05 06:04:29;;;;;;;4.50;1.77;;;;;;;2.32;100.00;91777.59;2110805;28;20453;-78
2024/01/05 06:05:30;;;;;;;3.42;2.00;;;;;;;2.40;100.00;91775.63;2100861;28;20039;-81
2024/01/05 06:06:31;;;;;;;3.95;1.83;;;;;;;2.42;100.00;91774.09;2099533;28;20027;-78
2024/01/05 06:07:32;;;;;;;4.07;1.92;;;;;;;2.31;100.00;91778.00;2107072;28;20119;-81
2024/01/05 06:08:33;;;;;;;6.35;2.22;;;;;;;2.34;100.00;91785.88;2110840;28;20134;-79
2024/01/05 06:09:34;;;;;;;3.85;2.20;;;;;;;2.41;100.00;91779.75;2111596;28;20454;-80
2024/01/05 06:10:35;;;;;;;4.28;1.95;;;;;;;2.40;100.00;91772.97;2102861;28;20122;-79
2024/01/05 06:11:36;;;;;;;3.05;2.10;;;;;;;2.44;100.00;91776.31;2095604;28;20039;-79
2024/01/05 06:12:37;;;;;;;3.05;1.88;;;;;;;2.50;100.00;91777.34;2112281;28;20031;-78
2024/01/05 06:15:35;;;;;;;4.28;2.22;;;;;;;2.51;100.00;91769.06;2106083;28;20089;-80
2024/01/05 06:16:36;;;;;;;7.43;2.38;;;;;;;2.46;100.00;91774.78;2103961;28;20080;-79
2024/01/05 06:17:37;;;;;;;5.32;2.40;;;;;;;2.43;100.00;91778.22;2095616;28;20124;-78
2024/01/05 06:18:38;;;;;;;5.05;2.88;;;;;;;2.48;100.00;91774.38;2096447;28;20031;-80
2024/01/05 06:19:55;;;;;;;4.47;2.00;;;;;;;2.61;100.00;91777.22;2103202;28;20066;-78
2024/01/05 06:20:56;;;;;;;4.45;1.95;;;;;;;2.57;100.00;91782.56;2108014;28;20036;-78
2024/01/05 06:22:03;;;;;;;7.35;2.38;;;;;;;2.46;100.00;91766.88;2112336;28;20031;-80
2024/01/05 06:23:04;;;;;;;4.70;1.95;;;;;;;2.48;100.00;91763.84;2099363;28;20032;-79
2024/01/05 06:24:05;;;;;;;5.82;1.80;;;;;;;2.46;100.00;91771.41;2095903;28;20024;-81
2024/01/05 06:25:30;;;;;;;3.85;1.95;;;;;;;2.43;100.00;91765.03;2104046;28;20894;-81
2024/01/05 06:26:31;;;;;;;4.05;2.00;;;;;;;2.36;100.00;91762.47;2097599;28;20093;-80
2024/01/05 06:27:32;;;;;;;8.35;3.35;;;;;;;2.46;100.00;91771.41;2092411;28;20025;-78
2024/01/05 06:28:36;;;;;;;4.60;2.05;;;;;;;2.43;100.00;91770.31;2108722;28;20073;-78
2024/01/05 06:29:37;;;;;;;4.18;2.10;;;;;;;2.38;100.00;91770.75;2111055;28;20047;-80
2024/01/05 06:30:38;;;;;;;6.63;2.05;;;;;;;2.46;100.00;91766.88;2097517;28;20028;-79
2024/01/05 06:31:39;;;;;;;9.73;2.35;;;;;;;2.49;100.00;91766.06;2110988;28;20034;-80